sensor_id;sensor_type;location;lat;lon;timestamp;P1;durP1;ratioP1;P2;durP2;ratioP2
3795;SDS011;1913;50.660;7.834;2023-03-29T00:01:47;6.40;;;3.87;;
3795;SDS011;1913;50.660;7.834;2023-03-29T00:04:13;7.10;;;3.73;;
3795;SDS011;1913;50.660;7.834;2023-03-29T00:06:39;6.03;;;3.87;;
3795;SDS011;1913;50.660;7.834;2023-03-29T00:09:06;7.17;;;3.63;;
3795;SDS011;1913;50.660;7.834;2023-03-29T00:11:33;8.70;;;4.30;;
3795;SDS011;1913;50.660;7.834;2023-03-29T00:13:59;6.90;;;4.00;;
3795;SDS011;1913;50.660;7.834;2023-03-29T00:16:25;8.20;;;4.13;;
3795;SDS011;1913;50.660;7.834;2023-03-29T00:18:50;9.37;;;3.93;;
3795;SDS011;1913;50.660;7.834;2023-03-29T00:21:16;9.17;;;4.20;;
3795;SDS011;1913;50.660;7.834;2023-03-29T00:23:41;6.20;;;3.90;;
3795;SDS011;1913;50.660;7.834;2023-03-29T00:26:07;9.30;;;3.93;;
3795;SDS011;1913;50.660;7.834;2023-03-29T00:28:32;6.73;;;4.07;;
3795;SDS011;1913;50.660;7.834;2023-03-29T00:31:05;6.90;;;4.10;;
3795;SDS011;1913;50.660;7.834;2023-03-29T00:33:32;9.57;;;4.43;;
3795;SDS011;1913;50.660;7.834;2023-03-29T00:35:57;9.33;;;4.43;;
3795;SDS011;1913;50.660;7.834;2023-03-29T00:38:23;10.40;;;4.17;;
3795;SDS011;1913;50.660;7.834;2023-03-29T00:40:48;5.43;;;4.70;;
3795;SDS011;1913;50.660;7.834;2023-03-29T00:43:14;6.93;;;4.53;;
3795;SDS011;1913;50.660;7.834;2023-03-29T00:45:40;7.30;;;5.10;;
3795;SDS011;1913;50.660;7.834;2023-03-29T00:48:07;7.80;;;4.83;;
3795;SDS011;1913;50.660;7.834;2023-03-29T00:50:48;10.07;;;5.33;;
3795;SDS011;1913;50.660;7.834;2023-03-29T00:53:19;8.10;;;4.80;;
3795;SDS011;1913;50.660;7.834;2023-03-29T00:55:49;6.90;;;4.47;;
3795;SDS011;1913;50.660;7.834;2023-03-29T00:58:21;7.57;;;4.23;;
3795;SDS011;1913;50.660;7.834;2023-03-29T01:00:56;5.97;;;4.13;;
3795;SDS011;1913;50.660;7.834;2023-03-29T01:03:27;7.40;;;3.77;;
3795;SDS011;1913;50.660;7.834;2023-03-29T01:05:58;8.47;;;4.57;;
3795;SDS011;1913;50.660;7.834;2023-03-29T01:08:30;6.97;;;4.10;;
3795;SDS011;1913;50.660;7.834;2023-03-29T01:11:07;6.87;;;4.20;;
3795;SDS011;1913;50.660;7.834;2023-03-29T01:13:41;5.93;;;3.50;;
3795;SDS011;1913;50.660;7.834;2023-03-29T01:16:11;5.97;;;3.67;;
3795;SDS011;1913;50.660;7.834;2023-03-29T01:18:38;8.30;;;4.57;;
3795;SDS011;1913;50.660;7.834;2023-03-29T01:29:14;3.90;;;3.43;;
3795;SDS011;1913;50.660;7.834;2023-03-29T01:31:51;8.90;;;3.33;;
3795;SDS011;1913;50.660;7.834;2023-03-29T01:34:26;5.23;;;3.90;;
3795;SDS011;1913;50.660;7.834;2023-03-29T01:37:00;7.37;;;3.23;;
3795;SDS011;1913;50.660;7.834;2023-03-29T01:39:28;7.50;;;4.20;;
3795;SDS011;1913;50.660;7.834;2023-03-29T01:42:03;4.37;;;3.50;;
3795;SDS011;1913;50.660;7.834;2023-03-29T01:47:50;5.80;;;3.33;;
3795;SDS011;1913;50.660;7.834;2023-03-29T01:52:53;5.37;;;2.97;;
3795;SDS011;1913;50.660;7.834;2023-03-29T01:55:25;4.10;;;2.90;;
3795;SDS011;1913;50.660;7.834;2023-03-29T01:57:56;5.17;;;3.83;;
3795;SDS011;1913;50.660;7.834;2023-03-29T02:00:25;5.70;;;3.60;;
3795;SDS011;1913;50.660;7.834;2023-03-29T02:02:53;7.00;;;3.40;;
3795;SDS011;1913;50.660;7.834;2023-03-29T02:05:24;8.50;;;3.77;;
3795;SDS011;1913;50.660;7.834;2023-03-29T02:07:52;4.97;;;3.20;;
3795;SDS011;1913;50.660;7.834;2023-03-29T02:10:20;3.23;;;2.70;;
3795;SDS011;1913;50.660;7.834;2023-03-29T02:12:47;3.97;;;3.30;;
3795;SDS011;1913;50.660;7.834;2023-03-29T02:15:15;3.73;;;3.00;;
3795;SDS011;1913;50.660;7.834;2023-03-29T02:17:43;4.03;;;2.70;;
3795;SDS011;1913;50.660;7.834;2023-03-29T02:25:21;4.93;;;3.20;;
3795;SDS011;1913;50.660;7.834;2023-03-29T02:27:49;5.50;;;3.43;;
3795;SDS011;1913;50.660;7.834;2023-03-29T02:30:16;8.33;;;3.20;;
3795;SDS011;1913;50.660;7.834;2023-03-29T02:35:14;4.53;;;2.93;;
3795;SDS011;1913;50.660;7.834;2023-03-29T02:37:44;5.10;;;3.10;;
3795;SDS011;1913;50.660;7.834;2023-03-29T02:40:13;3.73;;;2.47;;
3795;SDS011;1913;50.660;7.834;2023-03-29T02:42:41;5.60;;;2.60;;
3795;SDS011;1913;50.660;7.834;2023-03-29T02:45:10;9.23;;;3.07;;
3795;SDS011;1913;50.660;7.834;2023-03-29T02:47:40;4.60;;;3.13;;
3795;SDS011;1913;50.660;7.834;2023-03-29T02:50:09;3.23;;;2.90;;
3795;SDS011;1913;50.660;7.834;2023-03-29T02:52:36;5.13;;;2.90;;
3795;SDS011;1913;50.660;7.834;2023-03-29T02:55:07;3.03;;;2.73;;
3795;SDS011;1913;50.660;7.834;2023-03-29T02:57:39;7.63;;;2.73;;
3795;SDS011;1913;50.660;7.834;2023-03-29T03:00:05;3.57;;;2.70;;
3795;SDS011;1913;50.660;7.834;2023-03-29T03:02:34;3.97;;;3.03;;
3795;SDS011;1913;50.660;7.834;2023-03-29T03:05:02;4.83;;;3.03;;
3795;SDS011;1913;50.660;7.834;2023-03-29T03:07:28;3.70;;;3.03;;
3795;SDS011;1913;50.660;7.834;2023-03-29T03:09:53;6.40;;;3.10;;
3795;SDS011;1913;50.660;7.834;2023-03-29T03:12:19;5.13;;;3.40;;
3795;SDS011;1913;50.660;7.834;2023-03-29T03:14:45;5.70;;;3.43;;
3795;SDS011;1913;50.660;7.834;2023-03-29T03:17:10;6.37;;;3.23;;
3795;SDS011;1913;50.660;7.834;2023-03-29T03:19:36;4.30;;;2.97;;
3795;SDS011;1913;50.660;7.834;2023-03-29T03:22:02;3.63;;;2.93;;
3795;SDS011;1913;50.660;7.834;2023-03-29T03:24:30;5.57;;;2.60;;
3795;SDS011;1913;50.660;7.834;2023-03-29T03:26:56;4.90;;;2.67;;
3795;SDS011;1913;50.660;7.834;2023-03-29T03:29:23;5.47;;;3.60;;
3795;SDS011;1913;50.660;7.834;2023-03-29T03:31:52;4.60;;;3.20;;
3795;SDS011;1913;50.660;7.834;2023-03-29T03:34:18;5.87;;;3.63;;
3795;SDS011;1913;50.660;7.834;2023-03-29T03:36:44;4.60;;;3.40;;
3795;SDS011;1913;50.660;7.834;2023-03-29T03:39:11;6.40;;;4.10;;
3795;SDS011;1913;50.660;7.834;2023-03-29T03:41:37;5.27;;;3.87;;
3795;SDS011;1913;50.660;7.834;2023-03-29T03:44:03;8.73;;;4.23;;
3795;SDS011;1913;50.660;7.834;2023-03-29T03:46:28;6.40;;;3.50;;
3795;SDS011;1913;50.660;7.834;2023-03-29T03:48:54;3.90;;;3.07;;
3795;SDS011;1913;50.660;7.834;2023-03-29T03:51:20;8.17;;;3.40;;
3795;SDS011;1913;50.660;7.834;2023-03-29T03:53:46;6.83;;;3.17;;
3795;SDS011;1913;50.660;7.834;2023-03-29T03:56:11;7.03;;;3.63;;
3795;SDS011;1913;50.660;7.834;2023-03-29T03:58:37;5.43;;;3.07;;
3795;SDS011;1913;50.660;7.834;2023-03-29T04:01:03;4.00;;;3.00;;
3795;SDS011;1913;50.660;7.834;2023-03-29T04:03:30;5.13;;;3.47;;
3795;SDS011;1913;50.660;7.834;2023-03-29T04:05:58;5.10;;;3.40;;
3795;SDS011;1913;50.660;7.834;2023-03-29T04:08:24;6.60;;;3.00;;
3795;SDS011;1913;50.660;7.834;2023-03-29T04:10:53;4.77;;;3.70;;
3795;SDS011;1913;50.660;7.834;2023-03-29T04:13:20;6.73;;;3.07;;
3795;SDS011;1913;50.660;7.834;2023-03-29T04:15:47;4.60;;;3.43;;
3795;SDS011;1913;50.660;7.834;2023-03-29T04:18:19;4.17;;;3.67;;
3795;SDS011;1913;50.660;7.834;2023-03-29T04:20:45;3.30;;;2.77;;
3795;SDS011;1913;50.660;7.834;2023-03-29T04:23:12;9.17;;;3.73;;
3795;SDS011;1913;50.660;7.834;2023-03-29T04:25:37;6.17;;;2.87;;
3795;SDS011;1913;50.660;7.834;2023-03-29T04:28:03;7.93;;;3.20;;
3795;SDS011;1913;50.660;7.834;2023-03-29T04:30:29;3.50;;;2.43;;
3795;SDS011;1913;50.660;7.834;2023-03-29T04:32:54;5.30;;;2.90;;
3795;SDS011;1913;50.660;7.834;2023-03-29T04:35:20;7.60;;;3.33;;
3795;SDS011;1913;50.660;7.834;2023-03-29T04:37:45;4.60;;;2.90;;
3795;SDS011;1913;50.660;7.834;2023-03-29T04:40:12;4.70;;;3.13;;
3795;SDS011;1913;50.660;7.834;2023-03-29T04:42:43;4.43;;;3.30;;
3795;SDS011;1913;50.660;7.834;2023-03-29T04:45:10;8.03;;;3.10;;
3795;SDS011;1913;50.660;7.834;2023-03-29T04:47:38;4.40;;;2.97;;
3795;SDS011;1913;50.660;7.834;2023-03-29T04:50:04;3.77;;;2.83;;
3795;SDS011;1913;50.660;7.834;2023-03-29T04:52:32;4.87;;;3.17;;
3795;SDS011;1913;50.660;7.834;2023-03-29T04:54:58;4.67;;;3.10;;
3795;SDS011;1913;50.660;7.834;2023-03-29T04:57:25;5.83;;;3.00;;
3795;SDS011;1913;50.660;7.834;2023-03-29T04:59:51;4.90;;;2.93;;
3795;SDS011;1913;50.660;7.834;2023-03-29T05:02:17;7.43;;;3.37;;
3795;SDS011;1913;50.660;7.834;2023-03-29T05:04:43;7.07;;;3.80;;
3795;SDS011;1913;50.660;7.834;2023-03-29T05:07:08;7.53;;;3.77;;
3795;SDS011;1913;50.660;7.834;2023-03-29T05:09:34;5.60;;;2.90;;
3795;SDS011;1913;50.660;7.834;2023-03-29T05:12:00;3.93;;;3.37;;
3795;SDS011;1913;50.660;7.834;2023-03-29T05:14:25;7.67;;;2.77;;
3795;SDS011;1913;50.660;7.834;2023-03-29T05:16:51;4.20;;;3.23;;
3795;SDS011;1913;50.660;7.834;2023-03-29T05:19:17;6.90;;;3.70;;
3795;SDS011;1913;50.660;7.834;2023-03-29T05:21:45;4.60;;;3.23;;
3795;SDS011;1913;50.660;7.834;2023-03-29T05:24:15;8.33;;;3.40;;
3795;SDS011;1913;50.660;7.834;2023-03-29T05:26:41;5.00;;;3.10;;
3795;SDS011;1913;50.660;7.834;2023-03-29T05:29:07;8.30;;;3.93;;
3795;SDS011;1913;50.660;7.834;2023-03-29T05:31:33;5.63;;;3.40;;
3795;SDS011;1913;50.660;7.834;2023-03-29T05:33:59;7.10;;;3.40;;
3795;SDS011;1913;50.660;7.834;2023-03-29T05:36:24;6.03;;;3.43;;
3795;SDS011;1913;50.660;7.834;2023-03-29T05:38:50;3.60;;;3.13;;
3795;SDS011;1913;50.660;7.834;2023-03-29T05:41:16;6.73;;;3.10;;
3795;SDS011;1913;50.660;7.834;2023-03-29T05:43:44;3.70;;;2.77;;
3795;SDS011;1913;50.660;7.834;2023-03-29T05:46:10;5.50;;;3.20;;
3795;SDS011;1913;50.660;7.834;2023-03-29T05:48:36;5.87;;;3.40;;
3795;SDS011;1913;50.660;7.834;2023-03-29T05:51:02;9.13;;;3.00;;
3795;SDS011;1913;50.660;7.834;2023-03-29T05:53:28;7.50;;;3.40;;
3795;SDS011;1913;50.660;7.834;2023-03-29T05:55:55;3.73;;;2.90;;
3795;SDS011;1913;50.660;7.834;2023-03-29T05:58:21;5.03;;;3.20;;
3795;SDS011;1913;50.660;7.834;2023-03-29T06:00:47;4.73;;;3.10;;
3795;SDS011;1913;50.660;7.834;2023-03-29T06:03:17;4.53;;;2.97;;
3795;SDS011;1913;50.660;7.834;2023-03-29T06:05:45;7.60;;;3.07;;
3795;SDS011;1913;50.660;7.834;2023-03-29T06:08:19;5.13;;;3.40;;
3795;SDS011;1913;50.660;7.834;2023-03-29T06:10:44;4.93;;;3.03;;
3795;SDS011;1913;50.660;7.834;2023-03-29T06:13:10;3.77;;;3.20;;
3795;SDS011;1913;50.660;7.834;2023-03-29T06:15:35;5.37;;;3.67;;
3795;SDS011;1913;50.660;7.834;2023-03-29T06:18:01;6.87;;;3.33;;
3795;SDS011;1913;50.660;7.834;2023-03-29T06:20:27;5.00;;;3.20;;
3795;SDS011;1913;50.660;7.834;2023-03-29T06:22:53;4.97;;;2.93;;
3795;SDS011;1913;50.660;7.834;2023-03-29T06:25:19;7.07;;;3.23;;
3795;SDS011;1913;50.660;7.834;2023-03-29T06:27:44;4.93;;;3.40;;
3795;SDS011;1913;50.660;7.834;2023-03-29T06:30:13;8.73;;;3.80;;
3795;SDS011;1913;50.660;7.834;2023-03-29T06:32:40;7.40;;;3.70;;
3795;SDS011;1913;50.660;7.834;2023-03-29T06:35:07;7.43;;;4.10;;
3795;SDS011;1913;50.660;7.834;2023-03-29T06:37:33;6.60;;;3.63;;
3795;SDS011;1913;50.660;7.834;2023-03-29T06:39:59;4.27;;;3.30;;
3795;SDS011;1913;50.660;7.834;2023-03-29T06:42:25;4.37;;;2.83;;
3795;SDS011;1913;50.660;7.834;2023-03-29T06:44:50;4.80;;;3.17;;
3795;SDS011;1913;50.660;7.834;2023-03-29T06:47:16;6.13;;;3.03;;
3795;SDS011;1913;50.660;7.834;2023-03-29T06:49:42;4.00;;;3.43;;
3795;SDS011;1913;50.660;7.834;2023-03-29T06:52:08;6.00;;;2.80;;
3795;SDS011;1913;50.660;7.834;2023-03-29T06:54:34;4.57;;;3.27;;
3795;SDS011;1913;50.660;7.834;2023-03-29T06:56:59;5.13;;;3.10;;
3795;SDS011;1913;50.660;7.834;2023-03-29T06:59:26;6.17;;;3.00;;
3795;SDS011;1913;50.660;7.834;2023-03-29T07:01:51;9.30;;;3.03;;
3795;SDS011;1913;50.660;7.834;2023-03-29T07:04:20;5.90;;;3.17;;
3795;SDS011;1913;50.660;7.834;2023-03-29T07:06:47;4.57;;;2.53;;
3795;SDS011;1913;50.660;7.834;2023-03-29T07:09:15;5.33;;;3.03;;
3795;SDS011;1913;50.660;7.834;2023-03-29T07:11:43;8.43;;;3.27;;
3795;SDS011;1913;50.660;7.834;2023-03-29T07:14:09;7.33;;;2.80;;
3795;SDS011;1913;50.660;7.834;2023-03-29T07:16:35;4.37;;;2.60;;
3795;SDS011;1913;50.660;7.834;2023-03-29T07:19:02;8.80;;;3.00;;
3795;SDS011;1913;50.660;7.834;2023-03-29T07:21:28;4.10;;;3.33;;
3795;SDS011;1913;50.660;7.834;2023-03-29T07:23:54;4.73;;;3.33;;
3795;SDS011;1913;50.660;7.834;2023-03-29T07:26:21;9.00;;;3.10;;
3795;SDS011;1913;50.660;7.834;2023-03-29T07:28:46;4.10;;;3.27;;
3795;SDS011;1913;50.660;7.834;2023-03-29T07:31:12;7.63;;;3.00;;
3795;SDS011;1913;50.660;7.834;2023-03-29T07:33:39;4.87;;;2.87;;
3795;SDS011;1913;50.660;7.834;2023-03-29T07:36:05;4.60;;;2.63;;
3795;SDS011;1913;50.660;7.834;2023-03-29T07:38:31;5.77;;;2.87;;
3795;SDS011;1913;50.660;7.834;2023-03-29T07:40:57;5.80;;;2.83;;
3795;SDS011;1913;50.660;7.834;2023-03-29T07:43:23;5.90;;;3.93;;
3795;SDS011;1913;50.660;7.834;2023-03-29T07:45:49;6.50;;;2.97;;
3795;SDS011;1913;50.660;7.834;2023-03-29T07:48:16;10.73;;;3.07;;
3795;SDS011;1913;50.660;7.834;2023-03-29T07:50:43;5.73;;;2.60;;
3795;SDS011;1913;50.660;7.834;2023-03-29T07:53:10;5.23;;;3.00;;
3795;SDS011;1913;50.660;7.834;2023-03-29T07:55:35;5.93;;;3.27;;
3795;SDS011;1913;50.660;7.834;2023-03-29T07:58:01;5.93;;;3.10;;
3795;SDS011;1913;50.660;7.834;2023-03-29T08:00:28;6.37;;;2.90;;
3795;SDS011;1913;50.660;7.834;2023-03-29T08:02:53;3.73;;;2.37;;
3795;SDS011;1913;50.660;7.834;2023-03-29T08:05:20;3.13;;;2.73;;
3795;SDS011;1913;50.660;7.834;2023-03-29T08:07:49;6.00;;;3.13;;
3795;SDS011;1913;50.660;7.834;2023-03-29T08:10:18;4.27;;;3.07;;
3795;SDS011;1913;50.660;7.834;2023-03-29T08:12:46;4.40;;;3.00;;
3795;SDS011;1913;50.660;7.834;2023-03-29T08:15:14;3.70;;;2.67;;
3795;SDS011;1913;50.660;7.834;2023-03-29T08:17:40;6.13;;;2.87;;
3795;SDS011;1913;50.660;7.834;2023-03-29T08:20:07;4.93;;;3.13;;
3795;SDS011;1913;50.660;7.834;2023-03-29T08:22:35;4.30;;;2.97;;
3795;SDS011;1913;50.660;7.834;2023-03-29T08:25:01;3.70;;;3.10;;
3795;SDS011;1913;50.660;7.834;2023-03-29T08:27:28;4.50;;;3.23;;
3795;SDS011;1913;50.660;7.834;2023-03-29T08:29:55;8.80;;;3.20;;
3795;SDS011;1913;50.660;7.834;2023-03-29T08:32:21;3.03;;;2.73;;
3795;SDS011;1913;50.660;7.834;2023-03-29T08:34:46;3.63;;;3.07;;
3795;SDS011;1913;50.660;7.834;2023-03-29T08:37:12;5.17;;;3.10;;
3795;SDS011;1913;50.660;7.834;2023-03-29T08:39:39;9.17;;;3.00;;
3795;SDS011;1913;50.660;7.834;2023-03-29T08:45:15;4.80;;;3.20;;
3795;SDS011;1913;50.660;7.834;2023-03-29T08:50:43;4.07;;;2.93;;
3795;SDS011;1913;50.660;7.834;2023-03-29T08:53:15;6.30;;;3.10;;
3795;SDS011;1913;50.660;7.834;2023-03-29T08:55:45;3.17;;;2.80;;
3795;SDS011;1913;50.660;7.834;2023-03-29T08:58:19;3.60;;;2.63;;
3795;SDS011;1913;50.660;7.834;2023-03-29T09:00:57;6.47;;;3.20;;
3795;SDS011;1913;50.660;7.834;2023-03-29T09:03:33;9.00;;;3.20;;
3795;SDS011;1913;50.660;7.834;2023-03-29T09:06:03;7.03;;;3.10;;
3795;SDS011;1913;50.660;7.834;2023-03-29T09:08:30;10.23;;;2.93;;
3795;SDS011;1913;50.660;7.834;2023-03-29T09:11:01;6.13;;;3.00;;
3795;SDS011;1913;50.660;7.834;2023-03-29T09:27:25;4.20;;;2.63;;
3795;SDS011;1913;50.660;7.834;2023-03-29T09:29:57;4.60;;;3.10;;
3795;SDS011;1913;50.660;7.834;2023-03-29T09:32:29;6.93;;;3.20;;
3795;SDS011;1913;50.660;7.834;2023-03-29T09:37:29;4.67;;;3.40;;
3795;SDS011;1913;50.660;7.834;2023-03-29T09:39:58;4.53;;;3.27;;
3795;SDS011;1913;50.660;7.834;2023-03-29T09:42:25;4.60;;;3.10;;
3795;SDS011;1913;50.660;7.834;2023-03-29T09:44:54;6.43;;;3.70;;
3795;SDS011;1913;50.660;7.834;2023-03-29T09:47:31;7.90;;;3.40;;
3795;SDS011;1913;50.660;7.834;2023-03-29T09:50:05;4.50;;;2.83;;
3795;SDS011;1913;50.660;7.834;2023-03-29T09:52:34;6.80;;;3.30;;
3795;SDS011;1913;50.660;7.834;2023-03-29T09:54:59;5.43;;;2.97;;
3795;SDS011;1913;50.660;7.834;2023-03-29T09:57:27;4.63;;;2.63;;
3795;SDS011;1913;50.660;7.834;2023-03-29T09:59:54;4.83;;;3.20;;
3795;SDS011;1913;50.660;7.834;2023-03-29T10:02:20;6.90;;;3.00;;
3795;SDS011;1913;50.660;7.834;2023-03-29T10:04:51;9.43;;;3.83;;
3795;SDS011;1913;50.660;7.834;2023-03-29T10:07:19;4.80;;;3.03;;
3795;SDS011;1913;50.660;7.834;2023-03-29T10:09:45;9.87;;;4.00;;
3795;SDS011;1913;50.660;7.834;2023-03-29T10:12:14;3.83;;;3.03;;
3795;SDS011;1913;50.660;7.834;2023-03-29T10:14:47;4.77;;;3.00;;
3795;SDS011;1913;50.660;7.834;2023-03-29T10:17:18;5.70;;;3.07;;
3795;SDS011;1913;50.660;7.834;2023-03-29T10:20:00;9.03;;;3.30;;
3795;SDS011;1913;50.660;7.834;2023-03-29T10:22:32;6.43;;;3.20;;
3795;SDS011;1913;50.660;7.834;2023-03-29T10:25:00;6.87;;;3.20;;
3795;SDS011;1913;50.660;7.834;2023-03-29T10:27:26;6.47;;;3.23;;
3795;SDS011;1913;50.660;7.834;2023-03-29T10:29:53;5.83;;;3.30;;
3795;SDS011;1913;50.660;7.834;2023-03-29T10:34:46;8.93;;;3.10;;
3795;SDS011;1913;50.660;7.834;2023-03-29T10:37:17;6.83;;;3.30;;
3795;SDS011;1913;50.660;7.834;2023-03-29T10:39:48;6.73;;;2.80;;
3795;SDS011;1913;50.660;7.834;2023-03-29T10:42:15;6.90;;;3.20;;
3795;SDS011;1913;50.660;7.834;2023-03-29T10:44:51;7.03;;;3.00;;
3795;SDS011;1913;50.660;7.834;2023-03-29T10:47:19;7.80;;;2.90;;
3795;SDS011;1913;50.660;7.834;2023-03-29T10:49:49;7.43;;;3.50;;
3795;SDS011;1913;50.660;7.834;2023-03-29T10:52:17;9.17;;;3.00;;
3795;SDS011;1913;50.660;7.834;2023-03-29T10:54:43;6.23;;;3.10;;
3795;SDS011;1913;50.660;7.834;2023-03-29T10:57:11;4.63;;;2.90;;
3795;SDS011;1913;50.660;7.834;2023-03-29T10:59:52;5.63;;;3.00;;
3795;SDS011;1913;50.660;7.834;2023-03-29T11:14:01;5.67;;;3.13;;
3795;SDS011;1913;50.660;7.834;2023-03-29T11:22:12;4.60;;;2.93;;
3795;SDS011;1913;50.660;7.834;2023-03-29T11:27:37;5.63;;;3.10;;
3795;SDS011;1913;50.660;7.834;2023-03-29T11:38:18;11.47;;;3.10;;
3795;SDS011;1913;50.660;7.834;2023-03-29T11:40:52;7.53;;;2.83;;
3795;SDS011;1913;50.660;7.834;2023-03-29T11:43:32;4.57;;;2.90;;
3795;SDS011;1913;50.660;7.834;2023-03-29T11:48:49;7.57;;;2.93;;
3795;SDS011;1913;50.660;7.834;2023-03-29T11:53:58;7.77;;;3.00;;
3795;SDS011;1913;50.660;7.834;2023-03-29T11:56:36;9.10;;;3.40;;
3795;SDS011;1913;50.660;7.834;2023-03-29T11:59:14;6.60;;;3.10;;
3795;SDS011;1913;50.660;7.834;2023-03-29T12:04:41;5.13;;;3.20;;
3795;SDS011;1913;50.660;7.834;2023-03-29T12:09:56;8.43;;;3.60;;
3795;SDS011;1913;50.660;7.834;2023-03-29T12:12:40;6.83;;;3.30;;
3795;SDS011;1913;50.660;7.834;2023-03-29T12:15:17;5.67;;;2.97;;
3795;SDS011;1913;50.660;7.834;2023-03-29T12:20:53;6.17;;;2.97;;
3795;SDS011;1913;50.660;7.834;2023-03-29T12:23:23;4.27;;;3.10;;
3795;SDS011;1913;50.660;7.834;2023-03-29T12:34:35;7.97;;;2.80;;
3795;SDS011;1913;50.660;7.834;2023-03-29T12:37:27;4.03;;;3.00;;
3795;SDS011;1913;50.660;7.834;2023-03-29T12:40:10;8.20;;;2.87;;
3795;SDS011;1913;50.660;7.834;2023-03-29T12:42:46;6.93;;;3.17;;
3795;SDS011;1913;50.660;7.834;2023-03-29T12:45:20;6.20;;;2.93;;
3795;SDS011;1913;50.660;7.834;2023-03-29T12:47:54;5.47;;;3.20;;
3795;SDS011;1913;50.660;7.834;2023-03-29T13:07:01;6.90;;;3.40;;
3795;SDS011;1913;50.660;7.834;2023-03-29T13:20:22;2.80;;;2.40;;
3795;SDS011;1913;50.660;7.834;2023-03-29T13:32:01;6.10;;;2.87;;
3795;SDS011;1913;50.660;7.834;2023-03-29T13:39:50;7.13;;;2.90;;
3795;SDS011;1913;50.660;7.834;2023-03-29T13:45:11;8.00;;;3.00;;
3795;SDS011;1913;50.660;7.834;2023-03-29T13:47:47;3.70;;;2.30;;
3795;SDS011;1913;50.660;7.834;2023-03-29T13:50:17;2.87;;;2.00;;
3795;SDS011;1913;50.660;7.834;2023-03-29T13:52:48;7.33;;;2.33;;
3795;SDS011;1913;50.660;7.834;2023-03-29T13:55:25;5.67;;;2.50;;
3795;SDS011;1913;50.660;7.834;2023-03-29T13:58:03;4.60;;;2.20;;
3795;SDS011;1913;50.660;7.834;2023-03-29T14:00:54;6.93;;;2.20;;
3795;SDS011;1913;50.660;7.834;2023-03-29T14:03:26;3.40;;;2.13;;
3795;SDS011;1913;50.660;7.834;2023-03-29T14:05:59;4.80;;;2.10;;
3795;SDS011;1913;50.660;7.834;2023-03-29T14:08:29;2.97;;;1.90;;
3795;SDS011;1913;50.660;7.834;2023-03-29T14:11:01;5.00;;;2.20;;
3795;SDS011;1913;50.660;7.834;2023-03-29T14:13:28;3.30;;;2.30;;
3795;SDS011;1913;50.660;7.834;2023-03-29T14:18:24;5.77;;;2.23;;
3795;SDS011;1913;50.660;7.834;2023-03-29T14:20:52;4.50;;;2.60;;
3795;SDS011;1913;50.660;7.834;2023-03-29T14:23:20;5.00;;;2.20;;
3795;SDS011;1913;50.660;7.834;2023-03-29T14:25:48;3.53;;;2.40;;
3795;SDS011;1913;50.660;7.834;2023-03-29T14:28:26;3.37;;;2.43;;
3795;SDS011;1913;50.660;7.834;2023-03-29T14:30:53;4.90;;;2.30;;
3795;SDS011;1913;50.660;7.834;2023-03-29T14:33:29;5.17;;;2.50;;
3795;SDS011;1913;50.660;7.834;2023-03-29T14:36:01;6.10;;;2.10;;
3795;SDS011;1913;50.660;7.834;2023-03-29T14:38:28;7.17;;;3.33;;
3795;SDS011;1913;50.660;7.834;2023-03-29T14:40:59;4.13;;;2.00;;
3795;SDS011;1913;50.660;7.834;2023-03-29T14:43:26;6.03;;;2.47;;
3795;SDS011;1913;50.660;7.834;2023-03-29T14:45:54;5.87;;;2.70;;
3795;SDS011;1913;50.660;7.834;2023-03-29T14:48:21;3.60;;;2.60;;
3795;SDS011;1913;50.660;7.834;2023-03-29T14:50:47;5.10;;;2.87;;
3795;SDS011;1913;50.660;7.834;2023-03-29T14:53:19;6.77;;;2.47;;
3795;SDS011;1913;50.660;7.834;2023-03-29T14:55:50;6.20;;;2.60;;
3795;SDS011;1913;50.660;7.834;2023-03-29T14:58:27;5.87;;;2.50;;
3795;SDS011;1913;50.660;7.834;2023-03-29T15:00:55;4.60;;;2.63;;
3795;SDS011;1913;50.660;7.834;2023-03-29T15:03:21;2.93;;;2.47;;
3795;SDS011;1913;50.660;7.834;2023-03-29T15:05:57;4.47;;;2.73;;
3795;SDS011;1913;50.660;7.834;2023-03-29T15:08:31;5.50;;;2.50;;
3795;SDS011;1913;50.660;7.834;2023-03-29T15:10:59;5.77;;;2.93;;
3795;SDS011;1913;50.660;7.834;2023-03-29T15:13:27;5.50;;;2.63;;
3795;SDS011;1913;50.660;7.834;2023-03-29T15:15:59;4.30;;;2.50;;
3795;SDS011;1913;50.660;7.834;2023-03-29T15:18:29;3.30;;;2.40;;
3795;SDS011;1913;50.660;7.834;2023-03-29T15:20:58;3.73;;;2.53;;
3795;SDS011;1913;50.660;7.834;2023-03-29T15:23:32;6.77;;;2.67;;
3795;SDS011;1913;50.660;7.834;2023-03-29T15:26:21;4.80;;;2.80;;
3795;SDS011;1913;50.660;7.834;2023-03-29T15:28:47;4.37;;;2.80;;
3795;SDS011;1913;50.660;7.834;2023-03-29T15:31:19;4.87;;;2.57;;
3795;SDS011;1913;50.660;7.834;2023-03-29T15:33:59;3.63;;;2.90;;
3795;SDS011;1913;50.660;7.834;2023-03-29T15:36:26;5.30;;;3.07;;
3795;SDS011;1913;50.660;7.834;2023-03-29T15:38:52;6.80;;;3.43;;
3795;SDS011;1913;50.660;7.834;2023-03-29T15:41:17;3.80;;;2.83;;
3795;SDS011;1913;50.660;7.834;2023-03-29T15:43:43;4.57;;;2.80;;
3795;SDS011;1913;50.660;7.834;2023-03-29T15:46:11;7.60;;;3.27;;
3795;SDS011;1913;50.660;7.834;2023-03-29T15:48:38;5.70;;;3.27;;
3795;SDS011;1913;50.660;7.834;2023-03-29T15:51:04;5.87;;;3.00;;
3795;SDS011;1913;50.660;7.834;2023-03-29T15:53:30;7.73;;;2.90;;
3795;SDS011;1913;50.660;7.834;2023-03-29T15:55:57;5.60;;;3.33;;
3795;SDS011;1913;50.660;7.834;2023-03-29T15:58:25;7.80;;;3.33;;
3795;SDS011;1913;50.660;7.834;2023-03-29T16:00:55;6.47;;;2.87;;
3795;SDS011;1913;50.660;7.834;2023-03-29T16:03:23;5.27;;;2.50;;
3795;SDS011;1913;50.660;7.834;2023-03-29T16:05:51;5.60;;;2.57;;
3795;SDS011;1913;50.660;7.834;2023-03-29T16:08:20;4.07;;;2.40;;
3795;SDS011;1913;50.660;7.834;2023-03-29T16:10:46;5.43;;;2.90;;
3795;SDS011;1913;50.660;7.834;2023-03-29T16:13:13;4.17;;;3.03;;
3795;SDS011;1913;50.660;7.834;2023-03-29T16:15:39;6.07;;;3.30;;
3795;SDS011;1913;50.660;7.834;2023-03-29T16:18:06;5.87;;;3.03;;
3795;SDS011;1913;50.660;7.834;2023-03-29T16:20:32;8.53;;;3.60;;
3795;SDS011;1913;50.660;7.834;2023-03-29T16:22:57;6.37;;;3.43;;
3795;SDS011;1913;50.660;7.834;2023-03-29T16:25:23;5.27;;;2.93;;
3795;SDS011;1913;50.660;7.834;2023-03-29T16:27:49;6.00;;;3.37;;
3795;SDS011;1913;50.660;7.834;2023-03-29T16:30:16;5.63;;;3.30;;
3795;SDS011;1913;50.660;7.834;2023-03-29T16:32:42;8.80;;;3.40;;
3795;SDS011;1913;50.660;7.834;2023-03-29T16:35:28;5.53;;;2.80;;
3795;SDS011;1913;50.660;7.834;2023-03-29T16:37:55;5.90;;;3.20;;
3795;SDS011;1913;50.660;7.834;2023-03-29T16:40:20;5.23;;;2.97;;
3795;SDS011;1913;50.660;7.834;2023-03-29T16:42:48;8.20;;;2.90;;
3795;SDS011;1913;50.660;7.834;2023-03-29T16:45:14;10.10;;;3.20;;
3795;SDS011;1913;50.660;7.834;2023-03-29T16:47:40;5.13;;;3.00;;
3795;SDS011;1913;50.660;7.834;2023-03-29T16:50:14;6.10;;;3.30;;
3795;SDS011;1913;50.660;7.834;2023-03-29T16:52:43;4.37;;;3.10;;
3795;SDS011;1913;50.660;7.834;2023-03-29T16:55:09;5.07;;;3.10;;
3795;SDS011;1913;50.660;7.834;2023-03-29T16:57:37;5.30;;;2.60;;
3795;SDS011;1913;50.660;7.834;2023-03-29T17:00:09;5.70;;;2.80;;
3795;SDS011;1913;50.660;7.834;2023-03-29T17:02:38;5.17;;;2.70;;
3795;SDS011;1913;50.660;7.834;2023-03-29T17:05:04;4.17;;;2.47;;
3795;SDS011;1913;50.660;7.834;2023-03-29T17:07:30;5.30;;;2.47;;
3795;SDS011;1913;50.660;7.834;2023-03-29T17:09:56;4.83;;;2.30;;
3795;SDS011;1913;50.660;7.834;2023-03-29T17:12:21;3.70;;;2.60;;
3795;SDS011;1913;50.660;7.834;2023-03-29T17:14:47;3.83;;;2.53;;
3795;SDS011;1913;50.660;7.834;2023-03-29T17:17:13;5.30;;;3.07;;
3795;SDS011;1913;50.660;7.834;2023-03-29T17:19:38;8.27;;;2.80;;
3795;SDS011;1913;50.660;7.834;2023-03-29T17:22:04;6.93;;;2.80;;
3795;SDS011;1913;50.660;7.834;2023-03-29T17:24:30;5.80;;;2.60;;
3795;SDS011;1913;50.660;7.834;2023-03-29T17:26:55;4.50;;;2.43;;
3795;SDS011;1913;50.660;7.834;2023-03-29T17:29:21;4.80;;;2.33;;
3795;SDS011;1913;50.660;7.834;2023-03-29T17:31:46;3.70;;;2.50;;
3795;SDS011;1913;50.660;7.834;2023-03-29T17:34:12;5.53;;;2.47;;
3795;SDS011;1913;50.660;7.834;2023-03-29T17:36:39;5.00;;;2.47;;
3795;SDS011;1913;50.660;7.834;2023-03-29T17:39:05;5.47;;;2.43;;
3795;SDS011;1913;50.660;7.834;2023-03-29T17:41:32;3.87;;;2.67;;
3795;SDS011;1913;50.660;7.834;2023-03-29T17:43:57;4.73;;;2.33;;
3795;SDS011;1913;50.660;7.834;2023-03-29T17:46:23;5.83;;;2.60;;
3795;SDS011;1913;50.660;7.834;2023-03-29T17:48:48;3.80;;;2.10;;